Ticonderoga, New York
Current Conditions -  °F | °C
As of 11:35 AM on Monday 26 Jan 2015 (Local Time) from K6B0 Reporting Station
Clear Clear  
Wind Chill: -2°   Ceiling: Unl
Heat Index: 10°   Visibility: 10mi
Dew Point: -3°   Wind: 7mph
Humidity: 57%   Direction: 350°N
Pressure: 30.12"   Gusts: NA
Location:  43.85°N, 73.42°W
Report Text: K6B0 261635Z AUTO 35006KT 10SM CLR M12/M19 A3012 RMK AO2 T11251194
Loading
Personal Weather Stations






























Interactive Weather Map New forecast layout! Learn more

10-Day Weather Forecast

Advertisements
Track Severe Weather on mobile